sensor_id;sensor_type;location;lat;lon;timestamp;temperature;humidity
5086;DHT22;4715;51.660;7.082;2024-01-10T00:02:00;-3.30;99.90
5086;DHT22;4715;51.660;7.082;2024-01-10T00:04:21;-3.30;99.90
5086;DHT22;4715;51.660;7.082;2024-01-10T00:06:43;-3.40;99.90
5086;DHT22;4715;51.660;7.082;2024-01-10T00:09:05;-3.40;99.90
5086;DHT22;4715;51.660;7.082;2024-01-10T00:11:27;-3.40;99.90
5086;DHT22;4715;51.660;7.082;2024-01-10T00:13:49;-3.40;99.90
5086;DHT22;4715;51.660;7.082;2024-01-10T00:16:13;-3.40;99.90
5086;DHT22;4715;51.660;7.082;2024-01-10T00:18:35;-3.40;99.90
5086;DHT22;4715;51.660;7.082;2024-01-10T00:20:57;-3.40;99.90
5086;DHT22;4715;51.660;7.082;2024-01-10T00:23:19;-3.40;99.90
5086;DHT22;4715;51.660;7.082;2024-01-10T00:25:41;-3.40;99.90
5086;DHT22;4715;51.660;7.082;2024-01-10T00:28:03;-3.40;99.90
5086;DHT22;4715;51.660;7.082;2024-01-10T00:30:25;-3.40;99.90
5086;DHT22;4715;51.660;7.082;2024-01-10T00:32:49;-3.40;99.90
5086;DHT22;4715;51.660;7.082;2024-01-10T00:35:11;-3.40;99.90
5086;DHT22;4715;51.660;7.082;2024-01-10T00:37:32;-3.50;99.90
5086;DHT22;4715;51.660;7.082;2024-01-10T00:39:54;-3.50;99.90
5086;DHT22;4715;51.660;7.082;2024-01-10T00:42:16;-3.50;99.90
5086;DHT22;4715;51.660;7.082;2024-01-10T00:44:40;-3.50;99.90
5086;DHT22;4715;51.660;7.082;2024-01-10T00:47:03;-3.50;99.90
5086;DHT22;4715;51.660;7.082;2024-01-10T00:49:26;-3.50;99.90
5086;DHT22;4715;51.660;7.082;2024-01-10T00:51:48;-3.50;99.90
5086;DHT22;4715;51.660;7.082;2024-01-10T00:54:09;-3.50;99.90
5086;DHT22;4715;51.660;7.082;2024-01-10T00:56:31;-3.50;99.90
5086;DHT22;4715;51.660;7.082;2024-01-10T00:58:53;-3.50;99.90
5086;DHT22;4715;51.660;7.082;2024-01-10T01:01:18;-3.60;99.90
5086;DHT22;4715;51.660;7.082;2024-01-10T01:03:40;-3.60;99.90
5086;DHT22;4715;51.660;7.082;2024-01-10T01:06:03;-3.60;99.90
5086;DHT22;4715;51.660;7.082;2024-01-10T01:08:27;-3.60;99.90
5086;DHT22;4715;51.660;7.082;2024-01-10T01:10:49;-3.70;99.90
5086;DHT22;4715;51.660;7.082;2024-01-10T01:13:11;-3.70;99.90
5086;DHT22;4715;51.660;7.082;2024-01-10T01:15:32;-3.70;99.90
5086;DHT22;4715;51.660;7.082;2024-01-10T01:17:56;-3.80;99.90
5086;DHT22;4715;51.660;7.082;2024-01-10T01:20:17;-3.80;99.90
5086;DHT22;4715;51.660;7.082;2024-01-10T01:22:41;-3.80;99.90
5086;DHT22;4715;51.660;7.082;2024-01-10T01:25:03;-3.80;99.90
5086;DHT22;4715;51.660;7.082;2024-01-10T01:27:27;-3.80;99.90
5086;DHT22;4715;51.660;7.082;2024-01-10T01:29:50;-3.90;99.90
5086;DHT22;4715;51.660;7.082;2024-01-10T01:32:12;-3.90;99.90
5086;DHT22;4715;51.660;7.082;2024-01-10T01:34:34;-3.90;99.90
5086;DHT22;4715;51.660;7.082;2024-01-10T01:36:58;-3.90;99.90
5086;DHT22;4715;51.660;7.082;2024-01-10T01:39:23;-3.90;99.90
5086;DHT22;4715;51.660;7.082;2024-01-10T01:41:44;-3.90;99.90
5086;DHT22;4715;51.660;7.082;2024-01-10T01:44:06;-4.00;99.90
5086;DHT22;4715;51.660;7.082;2024-01-10T01:46:28;-4.00;99.90
5086;DHT22;4715;51.660;7.082;2024-01-10T01:48:50;-4.00;99.90
5086;DHT22;4715;51.660;7.082;2024-01-10T01:51:14;-4.00;99.90
5086;DHT22;4715;51.660;7.082;2024-01-10T01:53:37;-4.00;99.90
5086;DHT22;4715;51.660;7.082;2024-01-10T01:56:02;-4.10;99.90
5086;DHT22;4715;51.660;7.082;2024-01-10T01:58:25;-4.00;99.90
5086;DHT22;4715;51.660;7.082;2024-01-10T02:00:47;-4.10;99.90
5086;DHT22;4715;51.660;7.082;2024-01-10T02:03:09;-4.10;99.90
5086;DHT22;4715;51.660;7.082;2024-01-10T02:05:31;-4.00;99.90
5086;DHT22;4715;51.660;7.082;2024-01-10T02:07:53;-4.10;99.90
5086;DHT22;4715;51.660;7.082;2024-01-10T02:10:17;-4.10;99.90
5086;DHT22;4715;51.660;7.082;2024-01-10T02:12:41;-4.10;99.90
5086;DHT22;4715;51.660;7.082;2024-01-10T02:15:03;-4.10;99.90
5086;DHT22;4715;51.660;7.082;2024-01-10T02:17:26;-4.10;99.90
5086;DHT22;4715;51.660;7.082;2024-01-10T02:19:59;-4.10;99.90
5086;DHT22;4715;51.660;7.082;2024-01-10T02:22:28;-4.10;99.90
5086;DHT22;4715;51.660;7.082;2024-01-10T02:24:54;-4.10;99.90
5086;DHT22;4715;51.660;7.082;2024-01-10T02:27:19;-4.10;99.90
5086;DHT22;4715;51.660;7.082;2024-01-10T02:29:41;-4.10;99.90
5086;DHT22;4715;51.660;7.082;2024-01-10T02:32:06;-4.10;99.90
5086;DHT22;4715;51.660;7.082;2024-01-10T02:34:29;-4.10;99.90
5086;DHT22;4715;51.660;7.082;2024-01-10T02:36:52;-4.10;99.90
5086;DHT22;4715;51.660;7.082;2024-01-10T02:39:14;-4.20;99.90
5086;DHT22;4715;51.660;7.082;2024-01-10T02:41:37;-4.20;99.90
5086;DHT22;4715;51.660;7.082;2024-01-10T02:44:00;-4.20;99.90
5086;DHT22;4715;51.660;7.082;2024-01-10T02:46:22;-4.20;99.90
5086;DHT22;4715;51.660;7.082;2024-01-10T02:48:44;-4.20;99.90
5086;DHT22;4715;51.660;7.082;2024-01-10T02:51:06;-4.20;99.90
5086;DHT22;4715;51.660;7.082;2024-01-10T02:53:29;-4.20;99.90
5086;DHT22;4715;51.660;7.082;2024-01-10T02:55:52;-4.20;99.90
5086;DHT22;4715;51.660;7.082;2024-01-10T02:58:16;-4.20;99.90
5086;DHT22;4715;51.660;7.082;2024-01-10T03:00:37;-4.30;99.90
5086;DHT22;4715;51.660;7.082;2024-01-10T03:02:59;-4.30;99.90
5086;DHT22;4715;51.660;7.082;2024-01-10T03:05:24;-4.30;99.90
5086;DHT22;4715;51.660;7.082;2024-01-10T03:07:46;-4.30;99.90
5086;DHT22;4715;51.660;7.082;2024-01-10T03:10:09;-4.30;99.90
5086;DHT22;4715;51.660;7.082;2024-01-10T03:12:31;-4.40;99.90
5086;DHT22;4715;51.660;7.082;2024-01-10T03:14:54;-4.40;99.90
5086;DHT22;4715;51.660;7.082;2024-01-10T03:17:16;-4.40;99.90
5086;DHT22;4715;51.660;7.082;2024-01-10T03:19:39;-4.40;99.90
5086;DHT22;4715;51.660;7.082;2024-01-10T03:22:04;-4.30;99.90
5086;DHT22;4715;51.660;7.082;2024-01-10T03:24:27;-4.40;99.90
5086;DHT22;4715;51.660;7.082;2024-01-10T03:26:49;-4.40;99.90
5086;DHT22;4715;51.660;7.082;2024-01-10T03:29:11;-4.40;99.90
5086;DHT22;4715;51.660;7.082;2024-01-10T03:31:35;-4.40;99.90
5086;DHT22;4715;51.660;7.082;2024-01-10T03:33:57;-4.50;99.90
5086;DHT22;4715;51.660;7.082;2024-01-10T03:36:27;-4.50;99.90
5086;DHT22;4715;51.660;7.082;2024-01-10T03:38:51;-4.50;99.90
5086;DHT22;4715;51.660;7.082;2024-01-10T03:41:14;-4.50;99.90
5086;DHT22;4715;51.660;7.082;2024-01-10T03:43:36;-4.60;99.90
5086;DHT22;4715;51.660;7.082;2024-01-10T03:45:58;-4.60;99.90
5086;DHT22;4715;51.660;7.082;2024-01-10T03:48:22;-4.60;99.90
5086;DHT22;4715;51.660;7.082;2024-01-10T03:50:45;-4.70;99.90
5086;DHT22;4715;51.660;7.082;2024-01-10T03:53:07;-4.70;99.90
5086;DHT22;4715;51.660;7.082;2024-01-10T03:55:32;-4.70;99.90
5086;DHT22;4715;51.660;7.082;2024-01-10T03:57:54;-4.80;99.90
5086;DHT22;4715;51.660;7.082;2024-01-10T04:00:16;-4.80;99.90
5086;DHT22;4715;51.660;7.082;2024-01-10T04:02:40;-4.80;99.90
5086;DHT22;4715;51.660;7.082;2024-01-10T04:05:07;-4.80;99.90
5086;DHT22;4715;51.660;7.082;2024-01-10T04:07:34;-4.80;99.90
5086;DHT22;4715;51.660;7.082;2024-01-10T04:09:56;-4.80;99.90
5086;DHT22;4715;51.660;7.082;2024-01-10T04:12:18;-4.80;99.90
5086;DHT22;4715;51.660;7.082;2024-01-10T04:14:40;-4.80;99.90
5086;DHT22;4715;51.660;7.082;2024-01-10T04:17:02;-4.80;99.90
5086;DHT22;4715;51.660;7.082;2024-01-10T04:19:38;-4.80;99.90
5086;DHT22;4715;51.660;7.082;2024-01-10T04:22:02;-4.80;99.90
5086;DHT22;4715;51.660;7.082;2024-01-10T04:24:24;-4.70;99.90
5086;DHT22;4715;51.660;7.082;2024-01-10T04:26:47;-4.70;99.90
5086;DHT22;4715;51.660;7.082;2024-01-10T04:29:09;-4.60;99.90
5086;DHT22;4715;51.660;7.082;2024-01-10T04:31:32;-4.60;99.90
5086;DHT22;4715;51.660;7.082;2024-01-10T04:33:57;-4.60;99.90
5086;DHT22;4715;51.660;7.082;2024-01-10T04:36:21;-4.60;99.90
5086;DHT22;4715;51.660;7.082;2024-01-10T04:38:45;-4.60;99.90
5086;DHT22;4715;51.660;7.082;2024-01-10T04:41:11;-4.60;99.90
5086;DHT22;4715;51.660;7.082;2024-01-10T04:43:34;-4.60;99.90
5086;DHT22;4715;51.660;7.082;2024-01-10T04:45:57;-4.60;99.90
5086;DHT22;4715;51.660;7.082;2024-01-10T04:48:19;-4.60;99.90
5086;DHT22;4715;51.660;7.082;2024-01-10T04:50:41;-4.60;99.90
5086;DHT22;4715;51.660;7.082;2024-01-10T04:53:03;-4.60;99.90
5086;DHT22;4715;51.660;7.082;2024-01-10T04:55:29;-4.60;99.90
5086;DHT22;4715;51.660;7.082;2024-01-10T04:57:51;-4.60;99.90
5086;DHT22;4715;51.660;7.082;2024-01-10T05:00:16;-4.60;99.90
5086;DHT22;4715;51.660;7.082;2024-01-10T05:02:41;-4.60;99.90
5086;DHT22;4715;51.660;7.082;2024-01-10T05:05:08;-4.70;99.90
5086;DHT22;4715;51.660;7.082;2024-01-10T05:07:30;-4.70;99.90
5086;DHT22;4715;51.660;7.082;2024-01-10T05:09:52;-4.70;99.90
5086;DHT22;4715;51.660;7.082;2024-01-10T05:12:16;-4.70;99.90
5086;DHT22;4715;51.660;7.082;2024-01-10T05:14:38;-4.70;99.90
5086;DHT22;4715;51.660;7.082;2024-01-10T05:17:00;-4.80;99.90
5086;DHT22;4715;51.660;7.082;2024-01-10T05:19:25;-4.80;99.90
5086;DHT22;4715;51.660;7.082;2024-01-10T05:21:50;-4.80;99.90
5086;DHT22;4715;51.660;7.082;2024-01-10T05:24:13;-4.80;99.90
5086;DHT22;4715;51.660;7.082;2024-01-10T05:26:37;-4.80;99.90
5086;DHT22;4715;51.660;7.082;2024-01-10T05:29:05;-4.80;99.90
5086;DHT22;4715;51.660;7.082;2024-01-10T05:31:28;-4.70;99.90
5086;DHT22;4715;51.660;7.082;2024-01-10T05:33:50;-4.80;99.90
5086;DHT22;4715;51.660;7.082;2024-01-10T05:36:13;-4.80;99.90
5086;DHT22;4715;51.660;7.082;2024-01-10T05:38:35;-4.80;99.90
5086;DHT22;4715;51.660;7.082;2024-01-10T05:40:57;-4.80;99.90
5086;DHT22;4715;51.660;7.082;2024-01-10T05:43:19;-4.80;99.90
5086;DHT22;4715;51.660;7.082;2024-01-10T05:45:43;-4.80;99.90
5086;DHT22;4715;51.660;7.082;2024-01-10T05:48:07;-4.80;99.90
5086;DHT22;4715;51.660;7.082;2024-01-10T05:50:29;-4.80;99.90
5086;DHT22;4715;51.660;7.082;2024-01-10T05:52:52;-4.80;99.90
5086;DHT22;4715;51.660;7.082;2024-01-10T05:55:17;-4.80;99.90
5086;DHT22;4715;51.660;7.082;2024-01-10T05:57:39;-4.80;99.90
5086;DHT22;4715;51.660;7.082;2024-01-10T06:00:02;-4.80;99.90
5086;DHT22;4715;51.660;7.082;2024-01-10T06:02:26;-4.80;99.90
5086;DHT22;4715;51.660;7.082;2024-01-10T06:04:48;-4.90;99.90
5086;DHT22;4715;51.660;7.082;2024-01-10T06:07:13;-4.90;99.90
5086;DHT22;4715;51.660;7.082;2024-01-10T06:09:35;-4.90;99.90
5086;DHT22;4715;51.660;7.082;2024-01-10T06:11:56;-4.90;99.90
5086;DHT22;4715;51.660;7.082;2024-01-10T06:14:19;-4.90;99.90
5086;DHT22;4715;51.660;7.082;2024-01-10T06:16:41;-4.80;99.90
5086;DHT22;4715;51.660;7.082;2024-01-10T06:19:05;-4.80;99.90
5086;DHT22;4715;51.660;7.082;2024-01-10T06:21:27;-4.70;99.90
5086;DHT22;4715;51.660;7.082;2024-01-10T06:23:50;-4.70;99.90
5086;DHT22;4715;51.660;7.082;2024-01-10T06:26:12;-4.70;99.90
5086;DHT22;4715;51.660;7.082;2024-01-10T06:28:35;-4.70;99.90
5086;DHT22;4715;51.660;7.082;2024-01-10T06:30:57;-4.70;99.90
5086;DHT22;4715;51.660;7.082;2024-01-10T06:33:23;-4.60;99.90
5086;DHT22;4715;51.660;7.082;2024-01-10T06:35:46;-4.60;99.90
5086;DHT22;4715;51.660;7.082;2024-01-10T06:38:09;-4.60;99.90
5086;DHT22;4715;51.660;7.082;2024-01-10T06:40:31;-4.70;99.90
5086;DHT22;4715;51.660;7.082;2024-01-10T06:42:53;-4.60;99.90
5086;DHT22;4715;51.660;7.082;2024-01-10T06:45:15;-4.70;99.90
5086;DHT22;4715;51.660;7.082;2024-01-10T06:47:36;-4.60;99.90
5086;DHT22;4715;51.660;7.082;2024-01-10T06:50:02;-4.70;99.90
5086;DHT22;4715;51.660;7.082;2024-01-10T06:52:27;-4.70;99.90
5086;DHT22;4715;51.660;7.082;2024-01-10T06:54:49;-4.70;99.90
5086;DHT22;4715;51.660;7.082;2024-01-10T06:57:11;-4.70;99.90
5086;DHT22;4715;51.660;7.082;2024-01-10T06:59:32;-4.70;99.90
5086;DHT22;4715;51.660;7.082;2024-01-10T07:01:54;-4.70;99.90
5086;DHT22;4715;51.660;7.082;2024-01-10T07:04:17;-4.70;99.90
5086;DHT22;4715;51.660;7.082;2024-01-10T07:06:42;-4.70;99.90
5086;DHT22;4715;51.660;7.082;2024-01-10T07:09:06;-4.70;99.90
5086;DHT22;4715;51.660;7.082;2024-01-10T07:11:30;-4.70;99.90
5086;DHT22;4715;51.660;7.082;2024-01-10T07:13:52;-4.70;99.90
5086;DHT22;4715;51.660;7.082;2024-01-10T07:16:14;-4.70;99.90
5086;DHT22;4715;51.660;7.082;2024-01-10T07:18:37;-4.80;99.90
5086;DHT22;4715;51.660;7.082;2024-01-10T07:20:59;-4.80;99.90
5086;DHT22;4715;51.660;7.082;2024-01-10T07:23:21;-4.80;99.90
5086;DHT22;4715;51.660;7.082;2024-01-10T07:25:47;-4.90;99.90
5086;DHT22;4715;51.660;7.082;2024-01-10T07:28:09;-4.90;99.90
5086;DHT22;4715;51.660;7.082;2024-01-10T07:30:31;-4.80;99.90
5086;DHT22;4715;51.660;7.082;2024-01-10T07:32:53;-4.80;99.90
5086;DHT22;4715;51.660;7.082;2024-01-10T07:35:15;-4.80;99.90
5086;DHT22;4715;51.660;7.082;2024-01-10T07:37:37;-4.80;99.90
5086;DHT22;4715;51.660;7.082;2024-01-10T07:40:00;-4.80;99.90
5086;DHT22;4715;51.660;7.082;2024-01-10T07:42:23;-4.80;99.90
5086;DHT22;4715;51.660;7.082;2024-01-10T07:44:45;-4.80;99.90
5086;DHT22;4715;51.660;7.082;2024-01-10T07:47:08;-4.80;99.90
5086;DHT22;4715;51.660;7.082;2024-01-10T07:49:31;-4.80;99.90
5086;DHT22;4715;51.660;7.082;2024-01-10T07:51:53;-4.80;99.90
5086;DHT22;4715;51.660;7.082;2024-01-10T07:54:15;-4.80;99.90
5086;DHT22;4715;51.660;7.082;2024-01-10T07:56:36;-4.80;99.90
5086;DHT22;4715;51.660;7.082;2024-01-10T07:59:01;-4.80;99.90
5086;DHT22;4715;51.660;7.082;2024-01-10T08:01:24;-4.80;99.90
5086;DHT22;4715;51.660;7.082;2024-01-10T08:03:46;-4.70;99.90
5086;DHT22;4715;51.660;7.082;2024-01-10T08:06:08;-4.70;99.90
5086;DHT22;4715;51.660;7.082;2024-01-10T08:08:31;-4.60;99.90
5086;DHT22;4715;51.660;7.082;2024-01-10T08:10:53;-4.60;99.90
5086;DHT22;4715;51.660;7.082;2024-01-10T08:13:15;-4.60;99.90
5086;DHT22;4715;51.660;7.082;2024-01-10T08:15:40;-4.50;99.90
5086;DHT22;4715;51.660;7.082;2024-01-10T08:18:03;-4.50;99.90
5086;DHT22;4715;51.660;7.082;2024-01-10T08:20:27;-4.50;99.90
5086;DHT22;4715;51.660;7.082;2024-01-10T08:22:50;-4.50;99.90
5086;DHT22;4715;51.660;7.082;2024-01-10T08:25:12;-4.50;99.90
5086;DHT22;4715;51.660;7.082;2024-01-10T08:27:37;-4.50;99.90
5086;DHT22;4715;51.660;7.082;2024-01-10T08:29:59;-4.40;99.90
5086;DHT22;4715;51.660;7.082;2024-01-10T08:32:22;-4.40;99.90
5086;DHT22;4715;51.660;7.082;2024-01-10T08:34:44;-4.30;99.90
5086;DHT22;4715;51.660;7.082;2024-01-10T08:37:06;-4.30;99.90
5086;DHT22;4715;51.660;7.082;2024-01-10T08:39:28;-4.20;99.90
5086;DHT22;4715;51.660;7.082;2024-01-10T08:41:51;-4.10;99.90
5086;DHT22;4715;51.660;7.082;2024-01-10T08:44:13;-4.10;99.90
5086;DHT22;4715;51.660;7.082;2024-01-10T08:46:35;-4.10;99.90
5086;DHT22;4715;51.660;7.082;2024-01-10T08:48:59;-4.00;99.90
5086;DHT22;4715;51.660;7.082;2024-01-10T08:51:21;-4.00;99.90
5086;DHT22;4715;51.660;7.082;2024-01-10T08:53:43;-3.90;99.90
5086;DHT22;4715;51.660;7.082;2024-01-10T08:56:06;-3.90;99.90
5086;DHT22;4715;51.660;7.082;2024-01-10T08:58:28;-3.90;99.90
5086;DHT22;4715;51.660;7.082;2024-01-10T09:00:50;-3.80;99.90
5086;DHT22;4715;51.660;7.082;2024-01-10T09:03:12;-3.70;99.90
5086;DHT22;4715;51.660;7.082;2024-01-10T09:05:35;-3.70;99.90
5086;DHT22;4715;51.660;7.082;2024-01-10T09:07:57;-3.60;99.90
5086;DHT22;4715;51.660;7.082;2024-01-10T09:10:19;-3.60;99.90
5086;DHT22;4715;51.660;7.082;2024-01-10T09:12:43;-3.50;99.90
5086;DHT22;4715;51.660;7.082;2024-01-10T09:15:06;-3.40;99.90
5086;DHT22;4715;51.660;7.082;2024-01-10T09:17:35;-3.40;99.90
5086;DHT22;4715;51.660;7.082;2024-01-10T09:19:57;-3.30;99.90
5086;DHT22;4715;51.660;7.082;2024-01-10T09:22:20;-3.20;99.90
5086;DHT22;4715;51.660;7.082;2024-01-10T09:24:43;-3.20;99.90
5086;DHT22;4715;51.660;7.082;2024-01-10T09:27:07;-3.10;99.90
5086;DHT22;4715;51.660;7.082;2024-01-10T09:29:29;-3.00;99.90
5086;DHT22;4715;51.660;7.082;2024-01-10T09:31:51;-3.00;99.90
5086;DHT22;4715;51.660;7.082;2024-01-10T09:34:15;-2.90;99.90
5086;DHT22;4715;51.660;7.082;2024-01-10T09:36:37;-2.80;99.90
5086;DHT22;4715;51.660;7.082;2024-01-10T09:39:02;-2.70;99.90
5086;DHT22;4715;51.660;7.082;2024-01-10T09:41:28;-2.60;99.90
5086;DHT22;4715;51.660;7.082;2024-01-10T09:43:52;-2.50;99.90
5086;DHT22;4715;51.660;7.082;2024-01-10T09:46:18;-2.50;99.90
5086;DHT22;4715;51.660;7.082;2024-01-10T09:48:43;-2.40;99.90
5086;DHT22;4715;51.660;7.082;2024-01-10T09:51:05;-2.30;99.90
5086;DHT22;4715;51.660;7.082;2024-01-10T09:53:28;-2.30;99.90
5086;DHT22;4715;51.660;7.082;2024-01-10T09:55:55;-2.20;99.90
5086;DHT22;4715;51.660;7.082;2024-01-10T09:58:18;-2.10;99.90
5086;DHT22;4715;51.660;7.082;2024-01-10T10:00:40;-2.10;99.90
5086;DHT22;4715;51.660;7.082;2024-01-10T10:03:04;-2.10;99.90
5086;DHT22;4715;51.660;7.082;2024-01-10T10:05:28;-2.00;99.90
5086;DHT22;4715;51.660;7.082;2024-01-10T10:07:51;-2.00;99.90
5086;DHT22;4715;51.660;7.082;2024-01-10T10:10:14;-2.00;99.90
5086;DHT22;4715;51.660;7.082;2024-01-10T10:12:45;-1.90;99.90
5086;DHT22;4715;51.660;7.082;2024-01-10T10:15:10;-1.80;99.90
5086;DHT22;4715;51.660;7.082;2024-01-10T10:17:32;-1.70;99.90
5086;DHT22;4715;51.660;7.082;2024-01-10T10:20:03;-1.60;99.90
5086;DHT22;4715;51.660;7.082;2024-01-10T10:22:25;-1.40;99.90
5086;DHT22;4715;51.660;7.082;2024-01-10T10:24:48;-1.30;99.90
5086;DHT22;4715;51.660;7.082;2024-01-10T10:27:12;-1.10;99.90
5086;DHT22;4715;51.660;7.082;2024-01-10T10:29:35;-0.90;99.90
5086;DHT22;4715;51.660;7.082;2024-01-10T10:32:00;-0.70;99.90
5086;DHT22;4715;51.660;7.082;2024-01-10T10:34:23;-0.50;99.90
5086;DHT22;4715;51.660;7.082;2024-01-10T10:36:45;-0.40;99.90
5086;DHT22;4715;51.660;7.082;2024-01-10T10:39:08;-0.30;99.90
5086;DHT22;4715;51.660;7.082;2024-01-10T10:41:35;-0.20;99.90
5086;DHT22;4715;51.660;7.082;2024-01-10T10:43:58;-0.20;99.90
5086;DHT22;4715;51.660;7.082;2024-01-10T10:46:23;-0.10;99.90
5086;DHT22;4715;51.660;7.082;2024-01-10T10:48:49;-0.10;99.90
5086;DHT22;4715;51.660;7.082;2024-01-10T10:51:16;0.00;99.90
5086;DHT22;4715;51.660;7.082;2024-01-10T10:53:41;0.00;99.90
5086;DHT22;4715;51.660;7.082;2024-01-10T10:56:06;0.00;99.90
5086;DHT22;4715;51.660;7.082;2024-01-10T10:58:30;0.00;99.90
5086;DHT22;4715;51.660;7.082;2024-01-10T11:00:53;0.00;99.90
5086;DHT22;4715;51.660;7.082;2024-01-10T11:03:17;0.10;99.90
5086;DHT22;4715;51.660;7.082;2024-01-10T11:05:40;0.10;99.90
5086;DHT22;4715;51.660;7.082;2024-01-10T11:08:07;0.10;99.90
5086;DHT22;4715;51.660;7.082;2024-01-10T11:10:37;0.10;99.90
5086;DHT22;4715;51.660;7.082;2024-01-10T11:13:13;0.10;99.90
5086;DHT22;4715;51.660;7.082;2024-01-10T11:15:57;0.10;99.90
5086;DHT22;4715;51.660;7.082;2024-01-10T11:18:49;0.10;99.90
5086;DHT22;4715;51.660;7.082;2024-01-10T11:21:22;0.30;99.90
5086;DHT22;4715;51.660;7.082;2024-01-10T11:23:47;0.30;99.90
5086;DHT22;4715;51.660;7.082;2024-01-10T11:26:11;0.20;99.90
5086;DHT22;4715;51.660;7.082;2024-01-10T11:28:34;0.30;99.90
5086;DHT22;4715;51.660;7.082;2024-01-10T11:30:58;0.30;99.90
5086;DHT22;4715;51.660;7.082;2024-01-10T11:33:23;0.40;99.90
5086;DHT22;4715;51.660;7.082;2024-01-10T11:36:08;0.50;99.90
5086;DHT22;4715;51.660;7.082;2024-01-10T11:38:31;0.50;99.90
5086;DHT22;4715;51.660;7.082;2024-01-10T11:40:53;0.50;99.90
5086;DHT22;4715;51.660;7.082;2024-01-10T11:43:16;0.60;99.90
5086;DHT22;4715;51.660;7.082;2024-01-10T11:45:50;0.60;99.90
5086;DHT22;4715;51.660;7.082;2024-01-10T11:48:15;0.70;99.90
5086;DHT22;4715;51.660;7.082;2024-01-10T11:50:37;0.80;99.90
5086;DHT22;4715;51.660;7.082;2024-01-10T11:53:00;0.90;99.90
5086;DHT22;4715;51.660;7.082;2024-01-10T11:55:46;1.10;99.90
5086;DHT22;4715;51.660;7.082;2024-01-10T11:58:10;1.30;99.90
5086;DHT22;4715;51.660;7.082;2024-01-10T12:00:33;1.40;99.90
5086;DHT22;4715;51.660;7.082;2024-01-10T12:02:55;1.60;99.90
5086;DHT22;4715;51.660;7.082;2024-01-10T12:05:18;1.70;99.90
5086;DHT22;4715;51.660;7.082;2024-01-10T12:07:40;1.70;99.90
5086;DHT22;4715;51.660;7.082;2024-01-10T12:10:04;1.80;99.90
5086;DHT22;4715;51.660;7.082;2024-01-10T12:12:26;1.90;99.90
5086;DHT22;4715;51.660;7.082;2024-01-10T12:14:50;2.00;99.90
5086;DHT22;4715;51.660;7.082;2024-01-10T12:17:14;2.10;99.90
5086;DHT22;4715;51.660;7.082;2024-01-10T12:19:37;2.20;99.90
5086;DHT22;4715;51.660;7.082;2024-01-10T12:21:58;2.30;99.90
5086;DHT22;4715;51.660;7.082;2024-01-10T12:24:20;2.50;99.90
5086;DHT22;4715;51.660;7.082;2024-01-10T12:26:50;2.60;99.90
5086;DHT22;4715;51.660;7.082;2024-01-10T12:29:13;2.60;99.90
5086;DHT22;4715;51.660;7.082;2024-01-10T12:31:36;2.70;99.90
5086;DHT22;4715;51.660;7.082;2024-01-10T12:33:59;2.70;99.90
5086;DHT22;4715;51.660;7.082;2024-01-10T12:36:24;2.80;99.90
5086;DHT22;4715;51.660;7.082;2024-01-10T12:38:46;2.70;99.90
5086;DHT22;4715;51.660;7.082;2024-01-10T12:41:08;2.70;99.90
5086;DHT22;4715;51.660;7.082;2024-01-10T12:43:32;2.70;99.90
5086;DHT22;4715;51.660;7.082;2024-01-10T12:46:05;2.80;99.90
5086;DHT22;4715;51.660;7.082;2024-01-10T12:48:34;2.90;99.90
5086;DHT22;4715;51.660;7.082;2024-01-10T12:50:59;2.90;99.90
5086;DHT22;4715;51.660;7.082;2024-01-10T12:53:24;3.10;99.90
5086;DHT22;4715;51.660;7.082;2024-01-10T12:55:46;3.20;99.90
5086;DHT22;4715;51.660;7.082;2024-01-10T12:58:09;3.40;99.90
5086;DHT22;4715;51.660;7.082;2024-01-10T13:00:34;3.70;99.90
5086;DHT22;4715;51.660;7.082;2024-01-10T13:02:56;4.00;99.90
5086;DHT22;4715;51.660;7.082;2024-01-10T13:05:18;4.20;99.90
5086;DHT22;4715;51.660;7.082;2024-01-10T13:07:42;4.50;99.90
5086;DHT22;4715;51.660;7.082;2024-01-10T13:10:05;4.60;99.90
5086;DHT22;4715;51.660;7.082;2024-01-10T13:12:27;4.50;99.90
5086;DHT22;4715;51.660;7.082;2024-01-10T13:14:49;4.20;99.30
5086;DHT22;4715;51.660;7.082;2024-01-10T13:17:12;3.90;98.80
5086;DHT22;4715;51.660;7.082;2024-01-10T13:19:34;3.40;98.40
5086;DHT22;4715;51.660;7.082;2024-01-10T13:21:58;3.00;98.50
5086;DHT22;4715;51.660;7.082;2024-01-10T13:24:21;2.70;98.50
5086;DHT22;4715;51.660;7.082;2024-01-10T13:26:42;2.40;98.50
5086;DHT22;4715;51.660;7.082;2024-01-10T13:29:04;2.10;98.50
5086;DHT22;4715;51.660;7.082;2024-01-10T13:31:26;1.90;98.60
5086;DHT22;4715;51.660;7.082;2024-01-10T13:33:50;1.70;98.80
5086;DHT22;4715;51.660;7.082;2024-01-10T13:36:15;1.50;99.10
5086;DHT22;4715;51.660;7.082;2024-01-10T13:38:36;1.50;99.30
5086;DHT22;4715;51.660;7.082;2024-01-10T13:40:58;1.40;99.30
5086;DHT22;4715;51.660;7.082;2024-01-10T13:43:21;1.30;99.30
5086;DHT22;4715;51.660;7.082;2024-01-10T13:45:47;1.30;99.60
5086;DHT22;4715;51.660;7.082;2024-01-10T13:48:12;1.20;99.30
5086;DHT22;4715;51.660;7.082;2024-01-10T13:50:40;1.10;99.30
5086;DHT22;4715;51.660;7.082;2024-01-10T13:53:03;1.10;99.40
5086;DHT22;4715;51.660;7.082;2024-01-10T13:55:25;1.00;99.50
5086;DHT22;4715;51.660;7.082;2024-01-10T13:57:47;1.00;99.70
5086;DHT22;4715;51.660;7.082;2024-01-10T14:00:10;1.00;99.60
5086;DHT22;4715;51.660;7.082;2024-01-10T14:02:35;1.00;99.70
5086;DHT22;4715;51.660;7.082;2024-01-10T14:04:57;1.00;99.90
5086;DHT22;4715;51.660;7.082;2024-01-10T14:07:20;1.00;99.90
5086;DHT22;4715;51.660;7.082;2024-01-10T14:09:43;1.00;99.90
5086;DHT22;4715;51.660;7.082;2024-01-10T14:12:06;0.90;99.90
5086;DHT22;4715;51.660;7.082;2024-01-10T14:14:28;0.90;99.90
5086;DHT22;4715;51.660;7.082;2024-01-10T14:16:52;0.80;99.90
5086;DHT22;4715;51.660;7.082;2024-01-10T14:19:17;0.80;99.90
5086;DHT22;4715;51.660;7.082;2024-01-10T14:21:38;0.80;99.90
5086;DHT22;4715;51.660;7.082;2024-01-10T14:24:06;0.70;99.90
5086;DHT22;4715;51.660;7.082;2024-01-10T14:26:28;0.70;99.90
5086;DHT22;4715;51.660;7.082;2024-01-10T14:28:50;0.60;99.90
5086;DHT22;4715;51.660;7.082;2024-01-10T14:31:16;0.60;99.90
5086;DHT22;4715;51.660;7.082;2024-01-10T14:33:39;0.50;99.90
5086;DHT22;4715;51.660;7.082;2024-01-10T14:36:04;0.50;99.90
5086;DHT22;4715;51.660;7.082;2024-01-10T14:38:26;0.50;99.90
5086;DHT22;4715;51.660;7.082;2024-01-10T14:40:49;0.40;99.90
5086;DHT22;4715;51.660;7.082;2024-01-10T14:43:12;0.40;99.90
5086;DHT22;4715;51.660;7.082;2024-01-10T14:45:34;0.40;99.90
5086;DHT22;4715;51.660;7.082;2024-01-10T14:47:56;0.40;99.90
5086;DHT22;4715;51.660;7.082;2024-01-10T14:50:19;0.40;99.90
5086;DHT22;4715;51.660;7.082;2024-01-10T14:52:42;0.40;99.90
5086;DHT22;4715;51.660;7.082;2024-01-10T14:55:07;0.40;99.90
5086;DHT22;4715;51.660;7.082;2024-01-10T14:57:30;0.40;99.90
5086;DHT22;4715;51.660;7.082;2024-01-10T14:59:53;0.30;99.90
5086;DHT22;4715;51.660;7.082;2024-01-10T15:02:15;0.30;99.90
5086;DHT22;4715;51.660;7.082;2024-01-10T15:04:39;0.30;99.90
5086;DHT22;4715;51.660;7.082;2024-01-10T15:07:01;0.20;99.90
5086;DHT22;4715;51.660;7.082;2024-01-10T15:09:23;0.20;99.90
5086;DHT22;4715;51.660;7.082;2024-01-10T15:11:45;0.20;99.90
5086;DHT22;4715;51.660;7.082;2024-01-10T15:14:08;0.20;99.90
5086;DHT22;4715;51.660;7.082;2024-01-10T15:16:30;0.20;99.90
5086;DHT22;4715;51.660;7.082;2024-01-10T15:18:53;0.20;99.90
5086;DHT22;4715;51.660;7.082;2024-01-10T15:21:17;0.20;99.90
5086;DHT22;4715;51.660;7.082;2024-01-10T15:23:40;0.10;99.90
5086;DHT22;4715;51.660;7.082;2024-01-10T15:26:03;0.10;99.90
5086;DHT22;4715;51.660;7.082;2024-01-10T15:28:26;0.10;99.90
5086;DHT22;4715;51.660;7.082;2024-01-10T15:30:50;0.00;99.90
5086;DHT22;4715;51.660;7.082;2024-01-10T15:33:12;0.00;99.90
5086;DHT22;4715;51.660;7.082;2024-01-10T15:35:34;-0.10;99.90
5086;DHT22;4715;51.660;7.082;2024-01-10T15:37:56;-0.10;99.90
5086;DHT22;4715;51.660;7.082;2024-01-10T15:40:18;-0.10;99.90
5086;DHT22;4715;51.660;7.082;2024-01-10T15:42:41;-0.20;99.90